Time;durP1;ratioP1;P1;durP2;ratioP2;P2;SDS_P1;SDS_P2;PMS_P1;PMS_P2;Temp;Humidity;BMP_temperature;BMP_pressure;BME280_temperature;BME280_humidity;BME280_pressure;Samples;Min_cycle;Max_cycle;Signal;HPM_P1;HPM_P2
2022/10/23 00:01:25;;;;;;;1.88;1.60;;;17.60;59.70;;;;;;4967435;29;20030;-68
2022/10/23 00:03:54;;;;;;;1.42;1.20;;;17.60;59.70;;;;;;4967510;29;20033;-67
2022/10/23 00:06:20;;;;;;;1.85;1.50;;;17.60;59.70;;;;;;4967444;29;20306;-67
2022/10/23 00:08:47;;;;;;;1.27;1.17;;;17.60;59.70;;;;;;4967405;29;20023;-67
2022/10/23 00:11:20;;;;;;;1.50;1.40;;;17.60;60.30;;;;;;4967348;29;20206;-66
2022/10/23 00:13:47;;;;;;;1.52;1.42;;;17.60;59.60;;;;;;4967342;29;20307;-68
2022/10/23 00:16:13;;;;;;;1.75;1.40;;;17.60;59.70;;;;;;4967242;29;20030;-67
2022/10/23 00:18:40;;;;;;;1.33;1.23;;;17.60;59.70;;;;;;4966869;28;20023;-67
2022/10/23 00:21:07;;;;;;;2.00;1.55;;;17.60;59.70;;;;;;4967163;29;20019;-68
2022/10/23 00:23:33;;;;;;;2.13;1.60;;;17.60;59.70;;;;;;4967049;28;20028;-67
2022/10/23 00:25:59;;;;;;;1.70;1.40;;;17.60;59.70;;;;;;4967059;29;20019;-67
2022/10/23 00:28:25;;;;;;;1.63;1.20;;;17.60;59.70;;;;;;4967014;29;20023;-68
2022/10/23 00:30:51;;;;;;;1.60;1.50;;;17.60;60.30;;;;;;4966997;29;20027;-67
2022/10/23 00:33:17;;;;;;;1.75;1.60;;;17.60;59.70;;;;;;4966946;28;20027;-67
2022/10/23 00:35:43;;;;;;;1.65;1.33;;;17.60;59.70;;;;;;4966870;29;20090;-67
2022/10/23 00:38:09;;;;;;;1.70;1.30;;;17.60;59.70;;;;;;4966542;28;20335;-67
2022/10/23 00:40:36;;;;;;;1.48;1.02;;;17.60;59.70;;;;;;4966798;29;20484;-67
2022/10/23 00:43:03;;;;;;;1.52;1.10;;;17.60;59.70;;;;;;4966691;29;20453;-68
2022/10/23 00:45:32;;;;;;;1.50;1.27;;;17.60;59.70;;;;;;4966689;29;20026;-66
2022/10/23 00:48:00;;;;;;;1.50;1.35;;;17.60;59.70;;;;;;4966898;29;20026;-67
2022/10/23 00:50:28;;;;;;;2.17;1.60;;;17.60;59.70;;;;;;4966644;29;20051;-67
2022/10/23 00:53:01;;;;;;;1.80;1.40;;;17.60;59.70;;;;;;4966592;29;20086;-67
2022/10/23 00:55:28;;;;;;;1.38;1.27;;;17.60;59.70;;;;;;4966520;29;20037;-67
2022/10/23 00:57:54;;;;;;;1.52;1.42;;;17.60;59.70;;;;;;4966469;29;20049;-68
2022/10/23 01:00:24;;;;;;;1.75;1.40;;;17.60;59.70;;;;;;4966401;29;20041;-67
2022/10/23 01:02:50;;;;;;;1.25;1.15;;;17.60;59.70;;;;;;4966320;29;20027;-66
2022/10/23 01:05:16;;;;;;;1.63;1.52;;;17.60;59.70;;;;;;4966334;29;20019;-67
2022/10/23 01:08:07;;;;;;;1.75;1.17;;;17.60;59.70;;;;;;4966273;29;20074;-67
2022/10/23 01:10:43;;;;;;;1.58;1.48;;;17.60;59.70;;;;;;4966286;29;20255;-69
2022/10/23 01:13:19;;;;;;;2.40;2.00;;;17.60;59.70;;;;;;4966239;28;20019;-69
2022/10/23 01:16:03;;;;;;;1.67;1.58;;;17.60;59.70;;;;;;4966180;29;20310;-67
2022/10/23 01:18:56;;;;;;;1.77;1.40;;;17.60;59.70;;;;;;4966112;29;20219;-67
2022/10/23 01:22:00;;;;;;;1.52;1.33;;;17.60;59.70;;;;;;4973893;28;20027;-68
2022/10/23 01:24:56;;;;;;;1.40;1.30;;;17.60;59.70;;;;;;4966091;28;20370;-67
2022/10/23 01:27:25;;;;;;;1.55;1.33;;;17.60;59.70;;;;;;4966004;29;20082;-68
2022/10/23 01:30:00;;;;;;;1.90;1.35;;;17.60;59.60;;;;;;4965271;28;20087;-67
2022/10/23 01:32:47;;;;;;;1.67;1.30;;;17.60;59.70;;;;;;4965898;29;20042;-69
2022/10/23 01:35:23;;;;;;;2.15;1.85;;;17.60;59.70;;;;;;4965853;28;20019;-69
2022/10/23 01:38:18;;;;;;;1.23;1.13;;;17.60;59.70;;;;;;4965660;29;20327;-66
2022/10/23 01:41:01;;;;;;;1.90;1.27;;;17.60;59.70;;;;;;4965965;28;20031;-67
2022/10/23 01:44:00;;;;;;;1.60;1.35;;;17.60;59.70;;;;;;4965652;29;20086;-68
2022/10/23 01:46:27;;;;;;;2.17;1.50;;;17.60;59.70;;;;;;4965543;28;20034;-68
2022/10/23 01:48:55;;;;;;;1.65;1.40;;;17.50;59.60;;;;;;4965604;29;20031;-67
2022/10/23 01:51:24;;;;;;;2.23;1.37;;;17.60;59.70;;;;;;4965615;28;20100;-67
2022/10/23 01:53:54;;;;;;;2.20;1.40;;;17.50;59.60;;;;;;4965511;29;20433;-68
2022/10/23 01:56:33;;;;;;;1.73;1.30;;;17.60;59.70;;;;;;4965576;29;20083;-69
2022/10/23 01:59:03;;;;;;;1.80;1.50;;;17.50;59.60;;;;;;4965501;29;20048;-69
2022/10/23 02:01:31;;;;;;;1.67;1.58;;;17.50;59.60;;;;;;4965373;29;20078;-67
2022/10/23 02:04:00;;;;;;;1.80;1.55;;;17.50;59.60;;;;;;4965453;29;20094;-67
2022/10/23 02:06:25;;;;;;;1.48;1.38;;;17.50;59.60;;;;;;4965441;29;20196;-67
2022/10/23 02:08:51;;;;;;;1.92;1.65;;;17.50;59.60;;;;;;4965410;29;20018;-67
2022/10/23 02:11:20;;;;;;;1.45;1.35;;;17.50;59.60;;;;;;4965336;29;20027;-67
2022/10/23 02:13:57;;;;;;;1.55;1.27;;;17.50;59.60;;;;;;4965329;29;20444;-68
2022/10/23 02:16:43;;;;;;;1.48;1.38;;;17.50;59.60;;;;;;4965294;29;20023;-67
2022/10/23 02:19:08;;;;;;;2.33;1.55;;;17.60;59.70;;;;;;4965257;29;20019;-68
2022/10/23 02:22:00;;;;;;;1.50;1.40;;;17.50;59.60;;;;;;4965199;28;20209;-67
2022/10/23 02:24:31;;;;;;;1.50;1.40;;;17.50;59.60;;;;;;4965260;29;20323;-67
2022/10/23 02:27:01;;;;;;;1.65;1.50;;;17.50;59.60;;;;;;4965196;29;20299;-67
2022/10/23 02:29:33;;;;;;;1.75;1.42;;;17.50;59.60;;;;;;4965141;29;20015;-67
2022/10/23 02:32:00;;;;;;;1.67;1.40;;;17.50;59.60;;;;;;4965150;29;20023;-68
2022/10/23 02:34:27;;;;;;;1.73;1.33;;;17.50;59.60;;;;;;4965131;29;20026;-67
2022/10/23 02:36:53;;;;;;;1.80;1.30;;;17.50;59.60;;;;;;4965142;28;20015;-68
2022/10/23 02:39:21;;;;;;;2.15;1.35;;;17.50;59.60;;;;;;4964959;28;20343;-67
2022/10/23 02:42:09;;;;;;;1.73;1.50;;;17.50;59.70;;;;;;4966820;28;20029;-67
2022/10/23 02:45:00;;;;;;;1.60;1.50;;;17.50;59.60;;;;;;4967805;28;20035;-67
2022/10/23 02:47:39;;;;;;;1.45;1.30;;;17.50;59.60;;;;;;4968915;29;20307;-67
2022/10/23 02:50:19;;;;;;;1.65;1.50;;;17.50;59.60;;;;;;4968853;29;20299;-68
2022/10/23 02:53:10;;;;;;;1.88;1.70;;;17.50;59.60;;;;;;4968791;29;20023;-67
2022/10/23 02:55:55;;;;;;;1.40;1.30;;;17.50;59.60;;;;;;4971369;28;20098;-68
2022/10/23 02:58:30;;;;;;;1.52;1.40;;;17.50;59.60;;;;;;4968723;29;20038;-66
2022/10/23 03:01:12;;;;;;;1.42;1.33;;;17.50;59.60;;;;;;4968668;29;20251;-67
2022/10/23 03:03:43;;;;;;;2.08;1.80;;;17.50;59.60;;;;;;4968549;29;20023;-67
2022/10/23 03:06:09;;;;;;;1.60;1.50;;;17.50;59.60;;;;;;4968571;29;20019;-67
2022/10/23 03:09:05;;;;;;;1.50;1.40;;;17.50;59.60;;;;;;4968498;29;20123;-69
2022/10/23 03:11:31;;;;;;;1.25;1.15;;;17.50;59.60;;;;;;4967033;28;20223;-69
2022/10/23 03:13:57;;;;;;;1.92;1.35;;;17.50;59.60;;;;;;4968399;28;20019;-67
2022/10/23 03:16:23;;;;;;;1.65;1.55;;;17.50;59.60;;;;;;4968335;29;20184;-67
2022/10/23 03:18:49;;;;;;;1.92;1.55;;;17.50;59.60;;;;;;4968313;28;20011;-67
2022/10/23 03:21:14;;;;;;;1.70;1.40;;;17.50;59.60;;;;;;4968246;29;20019;-67
2022/10/23 03:23:40;;;;;;;2.05;1.65;;;17.50;59.60;;;;;;4968123;29;20103;-67
2022/10/23 03:26:06;;;;;;;1.58;1.40;;;17.50;59.60;;;;;;4968189;29;20046;-68
2022/10/23 03:28:32;;;;;;;1.92;1.70;;;17.50;59.60;;;;;;4968151;29;20026;-67
2022/10/23 03:30:57;;;;;;;2.05;1.85;;;17.50;59.60;;;;;;4968054;29;20315;-68
2022/10/23 03:33:23;;;;;;;1.95;1.70;;;17.50;59.60;;;;;;4968083;28;20019;-67
2022/10/23 03:35:49;;;;;;;2.03;1.65;;;17.50;59.60;;;;;;4967977;29;20025;-68
2022/10/23 03:38:15;;;;;;;1.58;1.42;;;17.50;59.60;;;;;;4967802;29;20102;-67
2022/10/23 03:40:42;;;;;;;1.40;1.30;;;17.50;59.70;;;;;;4967917;29;20035;-67
2022/10/23 03:43:08;;;;;;;1.70;1.42;;;17.50;59.60;;;;;;4967778;29;20027;-67
2022/10/23 03:45:35;;;;;;;1.55;1.30;;;17.50;59.60;;;;;;4967870;29;20018;-67
2022/10/23 03:48:01;;;;;;;1.47;1.20;;;17.50;59.60;;;;;;4967843;28;20025;-68
2022/10/23 03:50:27;;;;;;;1.67;1.40;;;17.50;59.60;;;;;;4967741;29;20023;-67
2022/10/23 03:52:53;;;;;;;1.60;1.50;;;17.50;59.60;;;;;;4967034;28;20015;-67
2022/10/23 03:55:18;;;;;;;1.52;1.38;;;17.50;59.60;;;;;;4967692;29;20053;-67
2022/10/23 03:57:44;;;;;;;1.70;1.60;;;17.50;59.60;;;;;;4967628;29;20023;-67
2022/10/23 04:00:10;;;;;;;1.55;1.45;;;17.40;59.60;;;;;;4967573;29;20030;-67
2022/10/23 04:02:36;;;;;;;1.27;1.17;;;17.50;59.60;;;;;;4967474;29;20031;-68
2022/10/23 04:05:02;;;;;;;1.90;1.48;;;17.50;59.70;;;;;;4967518;29;20448;-67
2022/10/23 04:07:28;;;;;;;2.30;1.63;;;17.50;59.60;;;;;;4967439;29;20246;-68
2022/10/23 04:09:53;;;;;;;1.70;1.55;;;17.50;59.70;;;;;;4967398;29;20078;-68
2022/10/23 04:12:19;;;;;;;1.50;1.40;;;17.50;59.60;;;;;;4967365;29;20067;-67
2022/10/23 04:14:45;;;;;;;1.60;1.50;;;17.40;59.60;;;;;;4967333;29;20066;-67
2022/10/23 04:17:10;;;;;;;1.90;1.63;;;17.40;59.60;;;;;;4967292;28;20095;-66
2022/10/23 04:19:36;;;;;;;1.50;1.40;;;17.50;59.60;;;;;;4967204;29;20059;-67
2022/10/23 04:22:02;;;;;;;1.42;1.33;;;17.40;59.60;;;;;;4967146;28;20218;-67
2022/10/23 04:24:28;;;;;;;1.98;1.80;;;17.40;59.60;;;;;;4967141;29;20026;-68
2022/10/23 04:26:54;;;;;;;1.70;1.50;;;17.40;59.60;;;;;;4967120;28;20087;-68
2022/10/23 04:29:23;;;;;;;1.77;1.52;;;17.40;59.60;;;;;;4967024;29;20096;-68
2022/10/23 04:31:50;;;;;;;1.58;1.35;;;17.40;59.60;;;;;;4967000;29;20098;-67
2022/10/23 04:34:19;;;;;;;1.83;1.38;;;17.40;59.60;;;;;;4966939;29;20023;-67
2022/10/23 04:36:45;;;;;;;2.13;1.83;;;17.40;59.60;;;;;;4966870;29;20019;-67
2022/10/23 04:39:11;;;;;;;2.03;1.80;;;17.50;59.70;;;;;;4966738;28;20106;-67
2022/10/23 04:41:37;;;;;;;1.63;1.50;;;17.40;59.60;;;;;;4966760;28;20023;-67
2022/10/23 04:44:03;;;;;;;1.90;1.55;;;17.40;59.60;;;;;;4966776;28;20082;-67
2022/10/23 04:46:29;;;;;;;2.20;2.00;;;17.40;59.60;;;;;;4966673;29;20255;-67
2022/10/23 04:48:55;;;;;;;1.80;1.65;;;17.40;59.70;;;;;;4966657;29;20019;-67
2022/10/23 04:51:21;;;;;;;1.95;1.10;;;17.40;59.70;;;;;;4966569;29;20215;-66
2022/10/23 04:53:46;;;;;;;2.08;1.85;;;17.40;59.70;;;;;;4966566;29;20311;-67
2022/10/23 04:56:14;;;;;;;1.83;1.65;;;17.40;60.30;;;;;;4966539;29;20023;-68
2022/10/23 04:58:40;;;;;;;1.48;1.38;;;17.40;60.30;;;;;;4966448;29;20018;-67
2022/10/23 05:01:09;;;;;;;1.33;1.23;;;17.40;59.70;;;;;;4966441;28;20438;-68
2022/10/23 05:03:35;;;;;;;2.08;1.65;;;17.40;59.70;;;;;;4966623;28;20090;-67
2022/10/23 05:06:02;;;;;;;1.65;1.55;;;17.40;59.70;;;;;;4965367;28;20031;-67
2022/10/23 05:08:28;;;;;;;1.67;1.58;;;17.40;59.70;;;;;;4966328;29;20019;-67
2022/10/23 05:10:53;;;;;;;1.83;1.58;;;17.40;59.70;;;;;;4966267;29;20023;-67
2022/10/23 05:13:19;;;;;;;1.55;1.40;;;17.40;59.70;;;;;;4966208;29;20030;-69
2022/10/23 05:15:50;;;;;;;2.33;1.50;;;17.40;59.60;;;;;;4966156;29;20047;-68
2022/10/23 05:18:23;;;;;;;2.00;1.58;;;17.40;59.70;;;;;;4966163;29;20082;-67
2022/10/23 05:20:54;;;;;;;1.73;1.52;;;17.40;59.70;;;;;;4966101;29;20027;-67
2022/10/23 05:23:22;;;;;;;1.70;1.58;;;17.40;59.70;;;;;;4966010;29;20023;-67
2022/10/23 05:25:48;;;;;;;2.03;1.70;;;17.40;59.70;;;;;;4966008;29;20026;-66
2022/10/23 05:28:14;;;;;;;1.58;1.48;;;17.40;59.60;;;;;;4980945;28;20024;-67
2022/10/23 05:30:41;;;;;;;1.90;1.70;;;17.40;59.60;;;;;;4965921;29;20015;-67
2022/10/23 05:33:07;;;;;;;1.38;1.27;;;17.40;59.60;;;;;;4965889;29;20370;-67
2022/10/23 05:35:35;;;;;;;1.92;1.73;;;17.40;59.60;;;;;;4965826;28;20027;-67
2022/10/23 05:38:01;;;;;;;1.80;1.40;;;17.40;59.60;;;;;;4965658;28;20343;-67
2022/10/23 05:40:27;;;;;;;1.83;1.50;;;17.40;59.70;;;;;;4965818;29;20023;-67
2022/10/23 05:42:53;;;;;;;2.22;1.52;;;17.40;59.60;;;;;;4965676;29;20037;-67
2022/10/23 05:45:19;;;;;;;1.52;1.42;;;17.40;59.60;;;;;;4965723;28;20011;-67
2022/10/23 05:47:46;;;;;;;1.90;1.48;;;17.40;59.60;;;;;;4965701;28;20020;-67
2022/10/23 05:50:12;;;;;;;1.23;1.13;;;17.40;59.60;;;;;;4965616;29;20062;-67
2022/10/23 05:52:37;;;;;;;1.73;1.60;;;17.40;59.50;;;;;;4965590;29;20027;-67
2022/10/23 05:55:03;;;;;;;1.50;1.40;;;17.40;59.50;;;;;;4965545;29;20315;-67
2022/10/23 05:57:32;;;;;;;1.52;1.35;;;17.40;59.50;;;;;;4965557;28;20259;-67
2022/10/23 05:59:58;;;;;;;2.13;1.55;;;17.40;59.50;;;;;;4965485;29;20026;-67
2022/10/23 06:02:24;;;;;;;2.17;1.67;;;17.40;59.60;;;;;;4965391;29;20027;-68
2022/10/23 06:04:50;;;;;;;2.10;1.90;;;17.40;59.50;;;;;;4965453;29;20019;-67
2022/10/23 06:07:16;;;;;;;1.75;1.65;;;17.40;59.60;;;;;;4965405;29;20019;-67
2022/10/23 06:09:41;;;;;;;1.50;1.40;;;17.40;59.50;;;;;;4980371;28;20094;-69
2022/10/23 06:12:08;;;;;;;1.70;1.38;;;17.40;59.60;;;;;;4965340;29;20334;-68
2022/10/23 06:14:33;;;;;;;2.67;1.45;;;17.40;59.60;;;;;;4965377;28;20019;-68
2022/10/23 06:16:59;;;;;;;1.90;1.48;;;17.40;59.50;;;;;;4964918;28;20027;-66
2022/10/23 06:19:25;;;;;;;2.08;1.60;;;17.40;59.50;;;;;;4965280;29;20023;-67
2022/10/23 06:21:50;;;;;;;2.05;1.85;;;17.40;59.50;;;;;;4965144;29;20070;-68
2022/10/23 06:24:16;;;;;;;1.50;1.40;;;17.40;59.50;;;;;;4965266;28;20063;-67
2022/10/23 06:26:42;;;;;;;1.30;1.20;;;17.40;59.60;;;;;;4965190;29;20074;-67
2022/10/23 06:29:08;;;;;;;1.77;1.60;;;17.40;59.50;;;;;;4965213;28;20116;-66
2022/10/23 06:31:34;;;;;;;1.13;1.02;;;17.40;59.50;;;;;;4965150;29;20338;-67
2022/10/23 06:33:59;;;;;;;1.70;1.60;;;17.40;59.60;;;;;;4965173;28;20086;-66
2022/10/23 06:36:26;;;;;;;1.75;1.60;;;17.40;59.60;;;;;;4965105;29;20085;-67
2022/10/23 06:38:51;;;;;;;1.52;1.42;;;17.40;59.60;;;;;;4964946;29;20036;-67
2022/10/23 06:41:22;;;;;;;1.60;1.50;;;17.40;59.60;;;;;;4965110;28;20362;-67
2022/10/23 06:43:49;;;;;;;1.55;1.45;;;17.40;59.60;;;;;;4965061;29;20031;-68
2022/10/23 06:46:16;;;;;;;1.60;1.50;;;17.40;59.70;;;;;;4965075;29;20262;-67
2022/10/23 06:48:43;;;;;;;1.45;1.35;;;17.40;59.70;;;;;;4964993;29;20019;-67
2022/10/23 06:51:13;;;;;;;1.80;1.50;;;17.40;59.60;;;;;;4964991;29;20019;-67
2022/10/23 06:53:39;;;;;;;2.42;1.55;;;17.40;59.60;;;;;;4965003;28;20081;-68
2022/10/23 06:56:07;;;;;;;1.80;1.55;;;17.40;59.60;;;;;;4963774;29;20320;-67
2022/10/23 06:58:34;;;;;;;1.95;1.70;;;17.40;59.50;;;;;;4964933;29;20097;-67
2022/10/23 07:01:05;;;;;;;1.90;1.55;;;17.40;59.40;;;;;;4964897;29;20199;-66
2022/10/23 07:03:31;;;;;;;1.63;1.52;;;17.40;59.40;;;;;;4964849;28;20029;-67
2022/10/23 07:06:01;;;;;;;1.63;1.38;;;17.40;59.40;;;;;;4964892;28;20019;-68
2022/10/23 07:08:27;;;;;;;1.77;1.67;;;17.40;59.40;;;;;;4964840;29;20200;-67
2022/10/23 07:10:53;;;;;;;1.63;1.52;;;17.40;59.40;;;;;;4964810;29;20015;-68
2022/10/23 07:13:19;;;;;;;1.77;1.40;;;17.40;59.40;;;;;;4964778;29;20026;-67
2022/10/23 07:15:44;;;;;;;1.60;1.48;;;17.50;59.30;;;;;;4964803;28;20088;-67
2022/10/23 07:18:15;;;;;;;2.60;1.73;;;17.50;59.30;;;;;;4964736;29;20038;-69
2022/10/23 07:20:41;;;;;;;2.13;1.63;;;17.50;59.10;;;;;;4964756;28;20200;-68
2022/10/23 07:23:10;;;;;;;1.95;1.67;;;17.60;59.10;;;;;;4964592;29;20054;-69
2022/10/23 07:25:36;;;;;;;1.67;1.58;;;17.60;59.10;;;;;;4964733;29;20263;-68
2022/10/23 07:28:04;;;;;;;1.48;1.38;;;17.60;59.00;;;;;;4965234;28;20023;-67
2022/10/23 07:30:30;;;;;;;1.45;1.35;;;17.60;59.00;;;;;;4968134;29;20303;-68
2022/10/23 07:32:55;;;;;;;2.30;1.60;;;17.60;59.00;;;;;;4968106;29;20027;-67
2022/10/23 07:35:21;;;;;;;1.27;1.17;;;17.60;59.00;;;;;;4968077;29;20245;-67
2022/10/23 07:37:47;;;;;;;2.03;1.60;;;17.70;59.00;;;;;;4967834;29;20043;-67
2022/10/23 07:40:13;;;;;;;1.35;1.17;;;17.70;59.00;;;;;;4968045;28;20189;-67
2022/10/23 07:42:39;;;;;;;1.73;1.63;;;17.70;58.90;;;;;;4967807;29;20027;-67
2022/10/23 07:45:07;;;;;;;1.55;1.45;;;17.70;58.90;;;;;;4967885;29;20094;-68
2022/10/23 07:47:33;;;;;;;1.13;1.08;;;17.70;58.90;;;;;;4967842;28;20199;-68
2022/10/23 07:49:59;;;;;;;1.50;1.40;;;17.70;58.90;;;;;;4967791;29;20192;-67
2022/10/23 07:52:25;;;;;;;1.42;1.33;;;17.70;58.90;;;;;;4967778;28;20058;-67
2022/10/23 07:54:51;;;;;;;1.60;1.50;;;17.70;59.00;;;;;;4967743;28;20024;-67
2022/10/23 07:57:17;;;;;;;1.70;1.60;;;17.60;59.20;;;;;;4967657;29;20023;-67
2022/10/23 07:59:43;;;;;;;1.90;1.80;;;17.60;59.20;;;;;;4967619;29;20334;-67
2022/10/23 08:02:14;;;;;;;2.30;1.42;;;17.60;59.30;;;;;;4967490;29;20019;-67
2022/10/23 08:04:40;;;;;;;1.52;1.30;;;17.60;60.00;;;;;;4967552;29;20122;-67
2022/10/23 08:07:06;;;;;;;1.50;1.40;;;17.60;59.40;;;;;;4967505;29;20023;-67
2022/10/23 08:09:33;;;;;;;1.60;1.50;;;17.60;59.40;;;;;;4967445;29;20023;-68
2022/10/23 08:12:00;;;;;;;2.15;1.70;;;17.60;59.40;;;;;;4967410;29;20019;-66
2022/10/23 08:14:26;;;;;;;1.67;1.58;;;17.60;59.50;;;;;;4967372;28;20023;-67
2022/10/23 08:16:51;;;;;;;1.50;1.40;;;17.60;59.50;;;;;;4967327;29;20030;-67
2022/10/23 08:19:17;;;;;;;1.40;1.30;;;17.60;59.50;;;;;;4967253;29;20078;-68
2022/10/23 08:21:43;;;;;;;1.92;1.40;;;17.60;59.50;;;;;;4967144;29;20299;-68
2022/10/23 08:24:12;;;;;;;1.48;1.38;;;17.60;59.50;;;;;;4967206;29;20047;-67
2022/10/23 08:26:39;;;;;;;1.83;1.20;;;17.60;59.60;;;;;;4967125;29;20352;-67
2022/10/23 08:29:05;;;;;;;1.45;1.33;;;17.60;59.60;;;;;;4967096;29;20026;-67
2022/10/23 08:31:31;;;;;;;1.60;1.50;;;17.60;59.50;;;;;;4967088;28;20266;-68
2022/10/23 08:33:56;;;;;;;1.50;1.40;;;17.60;59.50;;;;;;4967024;29;20251;-67
2022/10/23 08:36:25;;;;;;;2.42;1.63;;;17.60;59.50;;;;;;4966947;29;20019;-67
2022/10/23 08:38:53;;;;;;;1.42;1.33;;;17.70;59.50;;;;;;4966535;28;20047;-67
2022/10/23 08:41:53;;;;;;;1.85;1.75;;;17.70;59.40;;;;;;4966842;29;20019;-67
2022/10/23 08:44:49;;;;;;;1.45;1.35;;;17.70;59.40;;;;;;4970379;28;20102;-67
2022/10/23 08:47:32;;;;;;;1.30;1.20;;;17.70;59.40;;;;;;4968026;28;20039;-67
2022/10/23 08:50:12;;;;;;;2.03;1.70;;;17.70;59.40;;;;;;4966714;29;20022;-68
2022/10/23 08:52:51;;;;;;;1.45;1.30;;;17.70;59.40;;;;;;4966648;29;20023;-68
2022/10/23 08:55:29;;;;;;;1.17;1.08;;;17.70;59.40;;;;;;4966612;29;20019;-67
2022/10/23 08:58:05;;;;;;;1.70;1.48;;;17.70;59.40;;;;;;4966578;29;20023;-67
2022/10/23 09:00:31;;;;;;;1.45;1.35;;;17.70;59.30;;;;;;4966535;28;20027;-67
2022/10/23 09:03:01;;;;;;;1.60;1.33;;;17.80;59.40;;;;;;4966369;29;20051;-67
2022/10/23 09:05:53;;;;;;;1.58;1.20;;;17.80;59.40;;;;;;4966443;29;20023;-67
2022/10/23 09:08:37;;;;;;;1.77;1.50;;;17.70;59.30;;;;;;4968417;28;20095;-67
2022/10/23 09:11:13;;;;;;;1.58;1.48;;;17.80;59.30;;;;;;4966343;29;20087;-68
2022/10/23 09:14:02;;;;;;;1.40;1.30;;;17.80;59.30;;;;;;4966290;29;20038;-68
2022/10/23 09:16:52;;;;;;;1.63;1.40;;;17.80;59.30;;;;;;4966234;29;20038;-67
2022/10/23 09:19:23;;;;;;;1.40;1.17;;;17.80;59.30;;;;;;4966166;29;20030;-67
2022/10/23 09:21:49;;;;;;;1.88;1.58;;;17.80;59.30;;;;;;4966059;29;20026;-67
2022/10/23 09:24:21;;;;;;;1.45;1.35;;;17.80;59.30;;;;;;4966111;28;20027;-68
2022/10/23 09:26:49;;;;;;;0.95;0.95;;;17.80;59.20;;;;;;4966115;28;20311;-67
2022/10/23 09:29:34;;;;;;;1.47;1.37;;;17.80;59.20;;;;;;4966047;29;20015;-67
2022/10/23 09:32:03;;;;;;;1.15;1.05;;;17.90;59.30;;;;;;4965967;28;20588;-68
2022/10/23 09:34:31;;;;;;;1.48;1.38;;;17.80;59.20;;;;;;4965912;29;20015;-68
2022/10/23 09:36:58;;;;;;;1.30;1.20;;;17.80;59.20;;;;;;4965905;29;20046;-68
2022/10/23 09:39:32;;;;;;;1.50;1.40;;;17.90;59.20;;;;;;4965703;29;20328;-68
2022/10/23 09:42:01;;;;;;;1.73;1.38;;;17.90;59.20;;;;;;4965749;28;20219;-67
2022/10/23 09:44:28;;;;;;;;;;;17.90;59.20;;;;;;4966159;29;20023;-67
2022/10/23 09:47:17;;;;;;;1.30;1.20;;;17.90;59.10;;;;;;4965777;28;19910;-67
2022/10/23 09:49:47;;;;;;;1.40;1.30;;;17.90;59.20;;;;;;4965697;28;20079;-68
2022/10/23 09:52:15;;;;;;;1.30;1.20;;;17.90;59.20;;;;;;4965084;28;20030;-67
2022/10/23 09:55:08;;;;;;;1.38;1.10;;;17.90;59.20;;;;;;4965608;28;20058;-67
2022/10/23 09:57:40;;;;;;;1.40;1.30;;;17.90;59.10;;;;;;4965325;29;20345;-68
2022/10/23 10:00:26;;;;;;;1.58;1.15;;;18.00;59.20;;;;;;4965556;29;20023;-68
2022/10/23 10:02:59;;;;;;;1.45;1.35;;;18.00;59.10;;;;;;4965483;28;20082;-67
2022/10/23 10:05:37;;;;;;;1.65;1.48;;;18.00;59.20;;;;;;4965465;29;20073;-67
2022/10/23 10:08:23;;;;;;;1.67;1.37;;;18.00;59.20;;;;;;4965499;29;20023;-67
2022/10/23 10:10:54;;;;;;;1.48;1.15;;;18.00;59.10;;;;;;4965421;29;20079;-67
2022/10/23 10:14:12;;;;;;;1.73;1.30;;;18.00;59.10;;;;;;4965437;28;20035;-67
2022/10/23 10:16:47;;;;;;;1.50;1.40;;;18.00;59.00;;;;;;4957142;28;20039;-68
2022/10/23 10:19:32;;;;;;;1.70;1.42;;;18.00;59.10;;;;;;4965327;29;20318;-68
2022/10/23 10:22:09;;;;;;;1.70;1.30;;;18.00;59.10;;;;;;4965181;29;20091;-68
2022/10/23 10:25:18;;;;;;;1.43;1.33;;;18.00;59.10;;;;;;4965346;29;20211;-67
2022/10/23 10:28:10;;;;;;;1.05;0.95;;;18.10;59.20;;;;;;4982655;28;20357;-68
2022/10/23 10:31:17;;;;;;;1.48;1.35;;;18.10;59.10;;;;;;4965983;28;20046;-68
2022/10/23 10:34:05;;;;;;;1.65;1.42;;;18.10;59.10;;;;;;4982572;28;20054;-68
2022/10/23 10:36:49;;;;;;;1.50;1.40;;;18.10;59.10;;;;;;4965564;28;20200;-68
2022/10/23 10:39:48;;;;;;;1.30;1.20;;;18.10;59.10;;;;;;4964987;29;20377;-69
2022/10/23 10:42:28;;;;;;;1.65;1.55;;;18.10;59.10;;;;;;4965073;29;20035;-67
2022/10/23 10:45:00;;;;;;;1.40;1.30;;;18.10;59.10;;;;;;4965087;29;20023;-68
2022/10/23 10:48:01;;;;;;;1.45;1.20;;;18.10;59.10;;;;;;4965136;28;20018;-67
2022/10/23 10:50:50;;;;;;;1.35;1.25;;;18.20;59.10;;;;;;4964658;29;20022;-67
2022/10/23 10:53:33;;;;;;;1.73;1.23;;;18.20;59.10;;;;;;4965010;29;20027;-67
2022/10/23 10:56:01;;;;;;;2.85;1.50;;;18.20;59.10;;;;;;4965018;28;20066;-67
2022/10/23 10:58:49;;;;;;;1.38;1.27;;;18.20;59.10;;;;;;4964981;29;20030;-67
2022/10/23 11:02:11;;;;;;;1.65;1.55;;;18.20;59.10;;;;;;4964961;29;20338;-67
2022/10/23 11:04:54;;;;;;;1.55;1.40;;;18.20;59.10;;;;;;4968132;28;20038;-69
2022/10/23 11:07:25;;;;;;;1.83;1.70;;;18.20;59.10;;;;;;4968583;29;20015;-67
2022/10/23 11:09:52;;;;;;;1.33;1.23;;;18.20;59.00;;;;;;4968562;29;20030;-67
2022/10/23 11:12:25;;;;;;;1.65;1.23;;;18.20;59.10;;;;;;4968483;29;20306;-68
2022/10/23 11:14:51;;;;;;;1.92;1.73;;;18.20;59.00;;;;;;4968506;29;20047;-67
2022/10/23 11:17:23;;;;;;;1.73;1.33;;;18.20;59.10;;;;;;4968473;28;20026;-68
2022/10/23 11:20:17;;;;;;;1.40;1.20;;;18.20;59.00;;;;;;4968421;28;20311;-68
2022/10/23 11:23:20;;;;;;;1.45;1.35;;;18.30;59.00;;;;;;4975503;28;20070;-67
2022/10/23 11:25:57;;;;;;;2.20;1.75;;;18.30;59.00;;;;;;4968345;28;20015;-67
2022/10/23 11:28:48;;;;;;;1.25;1.15;;;18.30;59.10;;;;;;4968274;29;20059;-67
2022/10/23 11:31:38;;;;;;;1.40;1.30;;;18.30;59.10;;;;;;4968231;29;20330;-67
2022/10/23 11:34:22;;;;;;;1.40;1.30;;;18.20;59.00;;;;;;4968182;29;20047;-67
2022/10/23 11:36:51;;;;;;;1.13;1.02;;;18.30;59.00;;;;;;4968114;29;20041;-68
2022/10/23 11:39:29;;;;;;;1.50;1.30;;;18.30;59.10;;;;;;4966662;29;20035;-67
2022/10/23 11:42:12;;;;;;;1.45;1.20;;;18.40;59.10;;;;;;4967933;29;20110;-67
2022/10/23 11:44:46;;;;;;;1.67;1.55;;;18.30;59.00;;;;;;4967969;29;20019;-67
2022/10/23 11:47:30;;;;;;;1.20;1.10;;;18.30;59.00;;;;;;4967893;29;20030;-67
2022/10/23 11:50:08;;;;;;;1.05;0.95;;;18.40;59.00;;;;;;4967817;29;20069;-68
2022/10/23 11:52:37;;;;;;;1.10;1.10;;;18.40;59.00;;;;;;4967824;28;20082;-68
2022/10/23 11:55:24;;;;;;;1.58;1.48;;;18.40;59.60;;;;;;4967785;29;20023;-67
2022/10/23 11:58:13;;;;;;;1.43;1.17;;;18.40;58.90;;;;;;4982799;28;20062;-67
2022/10/23 12:00:48;;;;;;;;;;;18.40;58.90;;;;;;4968037;29;20295;-68
2022/10/23 12:03:23;;;;;;;1.30;1.20;;;18.40;58.90;;;;;;4967602;28;19985;-68
2022/10/23 12:05:58;;;;;;;1.20;1.10;;;18.40;59.10;;;;;;4967586;29;20019;-67
2022/10/23 12:08:27;;;;;;;1.88;1.23;;;18.40;59.10;;;;;;4967573;29;20042;-67
2022/10/23 12:10:54;;;;;;;1.20;1.10;;;18.40;59.10;;;;;;4967486;28;20015;-67
2022/10/23 12:13:36;;;;;;;1.17;1.08;;;18.40;58.90;;;;;;4967265;28;20078;-68
2022/10/23 12:16:03;;;;;;;1.40;1.25;;;18.50;58.90;;;;;;4967338;28;20026;-67
2022/10/23 12:18:29;;;;;;;1.52;1.23;;;18.50;58.90;;;;;;4967390;28;20027;-68
2022/10/23 12:21:01;;;;;;;1.00;0.90;;;18.50;58.90;;;;;;4967291;28;20046;-68
2022/10/23 12:23:40;;;;;;;1.23;1.05;;;18.50;58.90;;;;;;4967129;29;20043;-67
2022/10/23 12:26:23;;;;;;;1.42;1.30;;;18.60;58.90;;;;;;4967229;29;20303;-68
2022/10/23 12:29:09;;;;;;;1.50;1.40;;;18.60;58.80;;;;;;4967167;29;20058;-68
2022/10/23 12:32:07;;;;;;;1.30;1.20;;;18.60;58.80;;;;;;4967116;29;20050;-67
2022/10/23 12:34:44;;;;;;;1.42;1.25;;;18.60;59.30;;;;;;4970658;28;20035;-67
2022/10/23 12:37:29;;;;;;;1.75;1.30;;;18.60;58.60;;;;;;4966984;29;20215;-67
2022/10/23 12:39:55;;;;;;;1.75;1.55;;;18.70;58.50;;;;;;4966784;29;20106;-67
2022/10/23 12:42:23;;;;;;;1.52;1.30;;;18.80;58.50;;;;;;4966811;28;20341;-67
2022/10/23 12:45:16;;;;;;;1.30;1.10;;;18.70;58.50;;;;;;4965690;29;20026;-67
2022/10/23 12:47:44;;;;;;;0.88;0.82;;;18.70;58.50;;;;;;4966774;29;20046;-68
2022/10/23 12:50:22;;;;;;;1.40;1.30;;;18.80;58.60;;;;;;4966722;29;20019;-67
2022/10/23 12:53:02;;;;;;;1.13;1.10;;;18.90;58.10;;;;;;4966721;29;20023;-68
2022/10/23 12:55:31;;;;;;;1.42;1.33;;;18.90;58.00;;;;;;4966705;28;20033;-68
2022/10/23 12:57:57;;;;;;;1.50;1.10;;;18.90;58.20;;;;;;4966548;29;20027;-67
2022/10/23 13:00:24;;;;;;;1.30;1.20;;;18.80;58.50;;;;;;4966567;28;20022;-67
2022/10/23 13:02:58;;;;;;;1.63;1.52;;;18.70;58.70;;;;;;4966427;29;20338;-67
2022/10/23 13:05:24;;;;;;;1.35;1.25;;;18.70;58.80;;;;;;4966455;29;20019;-67
2022/10/23 13:07:51;;;;;;;1.30;1.20;;;18.60;59.00;;;;;;4966458;29;20078;-67
2022/10/23 13:10:19;;;;;;;1.23;1.10;;;18.60;59.10;;;;;;4966389;29;20366;-68
2022/10/23 13:13:18;;;;;;;1.20;1.10;;;18.50;59.10;;;;;;4966337;29;20030;-67
2022/10/23 13:15:44;;;;;;;1.05;1.02;;;18.50;59.20;;;;;;4969394;28;20054;-67